Time;durP1;ratioP1;P1;durP2;ratioP2;P2;SDS_P1;SDS_P2;PMS_P1;PMS_P2;Temp;Humidity;BMP_temperature;BMP_pressure;BME280_temperature;BME280_humidity;BME280_pressure;Samples;Min_cycle;Max_cycle;Signal;HPM_P1;HPM_P2
2023/06/25 00:00:08;;;;;;;4.95;4.45;;;20.40;99.90;;;;;;2074284;28;20030;-70
2023/06/25 00:01:08;;;;;;;5.20;4.75;;;20.40;99.90;;;;;;2074693;28;20029;-70
2023/06/25 00:02:09;;;;;;;5.00;4.50;;;20.40;99.90;;;;;;2076588;28;20107;-70
2023/06/25 00:03:09;;;;;;;6.95;4.60;;;20.40;99.90;;;;;;2079437;28;20108;-70
2023/06/25 00:04:10;;;;;;;6.35;4.60;;;20.40;99.90;;;;;;2078388;28;20033;-70
2023/06/25 00:05:10;;;;;;;6.28;5.75;;;20.40;99.90;;;;;;2076006;28;20060;-70
2023/06/25 00:06:11;;;;;;;5.55;5.00;;;20.40;99.90;;;;;;2075385;28;20040;-70
2023/06/25 00:07:12;;;;;;;5.43;4.93;;;20.30;99.90;;;;;;2076161;28;20130;-70
2023/06/25 00:08:12;;;;;;;8.45;4.70;;;20.30;99.90;;;;;;2074362;28;20082;-70
2023/06/25 00:09:13;;;;;;;5.28;4.70;;;20.30;99.90;;;;;;2076887;28;20038;-70
2023/06/25 00:10:14;;;;;;;8.95;4.40;;;20.30;99.90;;;;;;2074680;28;20072;-70
2023/06/25 00:11:14;;;;;;;4.68;4.20;;;20.30;99.90;;;;;;2074957;28;20030;-70
2023/06/25 00:12:15;;;;;;;5.15;4.63;;;20.30;99.90;;;;;;2076931;28;20032;-70
2023/06/25 00:13:15;;;;;;;6.43;5.13;;;20.30;99.90;;;;;;2076696;28;20034;-70
2023/06/25 00:14:16;;;;;;;4.63;4.13;;;20.30;99.90;;;;;;2075481;28;20128;-70
2023/06/25 00:15:17;;;;;;;5.30;4.22;;;20.20;99.90;;;;;;2076535;28;20054;-70
2023/06/25 00:16:17;;;;;;;5.40;4.75;;;20.20;99.90;;;;;;2075517;28;20041;-70
2023/06/25 00:17:18;;;;;;;6.00;5.15;;;20.20;99.90;;;;;;2074890;28;20034;-70
2023/06/25 00:18:18;;;;;;;5.63;4.50;;;20.20;99.90;;;;;;2075174;28;20021;-70
2023/06/25 00:19:19;;;;;;;7.78;4.80;;;20.20;99.90;;;;;;2075322;28;20044;-70
2023/06/25 00:20:19;;;;;;;5.50;4.90;;;20.20;99.90;;;;;;2074854;28;20038;-70
2023/06/25 00:21:20;;;;;;;5.40;4.80;;;20.10;99.90;;;;;;2077907;28;20757;-70
2023/06/25 00:22:20;;;;;;;7.03;4.60;;;20.20;99.90;;;;;;2077051;28;20536;-70
2023/06/25 00:23:24;;;;;;;5.13;4.47;;;20.10;99.90;;;;;;2075502;28;20021;-70
2023/06/25 00:24:25;;;;;;;6.72;4.93;;;20.20;99.90;;;;;;2076087;28;20204;-70
2023/06/25 00:25:26;;;;;;;5.18;4.63;;;20.10;99.90;;;;;;2076292;28;20021;-70
2023/06/25 00:26:27;;;;;;;5.43;4.50;;;20.10;99.90;;;;;;2073227;28;20021;-70
2023/06/25 00:27:28;;;;;;;6.18;5.57;;;20.10;99.90;;;;;;2074203;28;20036;-70
2023/06/25 00:28:28;;;;;;;6.78;4.35;;;20.10;99.90;;;;;;2076682;28;20037;-70
2023/06/25 00:29:29;;;;;;;5.80;5.20;;;20.10;99.90;;;;;;2074260;28;20109;-70
2023/06/25 00:30:29;;;;;;;5.82;5.30;;;20.10;99.90;;;;;;2074304;28;20168;-70
2023/06/25 00:31:30;;;;;;;5.30;4.72;;;20.00;99.90;;;;;;2075729;28;20025;-70
2023/06/25 00:32:30;;;;;;;5.68;5.15;;;20.00;99.90;;;;;;2076086;28;20639;-70
2023/06/25 00:33:34;;;;;;;5.15;4.75;;;20.00;99.90;;;;;;2073387;28;20025;-70
2023/06/25 00:34:41;;;;;;;8.73;4.85;;;20.00;99.90;;;;;;2075963;28;20083;-70
2023/06/25 00:35:50;;;;;;;5.65;5.05;;;20.00;99.90;;;;;;2075355;28;20461;-70
2023/06/25 00:36:52;;;;;;;5.93;5.30;;;20.00;99.90;;;;;;2075346;28;20100;-70
2023/06/25 00:37:56;;;;;;;6.10;5.50;;;19.90;99.90;;;;;;2075825;28;20510;-70
2023/06/25 00:38:59;;;;;;;6.47;5.28;;;19.90;99.90;;;;;;2076116;28;20025;-70
2023/06/25 00:40:00;;;;;;;5.90;5.30;;;19.90;99.90;;;;;;2072815;28;20026;-70
2023/06/25 00:41:00;;;;;;;5.38;4.88;;;19.90;99.90;;;;;;2074828;28;20056;-70
2023/06/25 00:42:01;;;;;;;4.90;4.50;;;19.90;99.90;;;;;;2074915;28;20025;-70
2023/06/25 00:43:03;;;;;;;5.28;4.35;;;19.90;99.90;;;;;;2077015;28;20102;-70
2023/06/25 00:44:07;;;;;;;5.35;4.88;;;19.90;99.90;;;;;;2074764;28;20076;-70
2023/06/25 00:45:12;;;;;;;5.72;5.07;;;19.90;99.90;;;;;;2076509;28;20597;-70
2023/06/25 00:46:15;;;;;;;5.00;4.50;;;19.90;99.90;;;;;;2076226;28;20397;-70
2023/06/25 00:47:16;;;;;;;5.93;5.43;;;19.90;99.90;;;;;;2065728;28;20477;-70
2023/06/25 00:48:21;;;;;;;6.10;4.72;;;19.80;99.90;;;;;;2066076;28;20052;-70
2023/06/25 00:49:22;;;;;;;5.35;4.85;;;19.80;99.90;;;;;;2077065;28;20040;-70
2023/06/25 00:50:22;;;;;;;7.50;5.78;;;19.80;99.90;;;;;;2074754;28;20032;-70
2023/06/25 00:51:27;;;;;;;6.57;5.43;;;19.80;99.90;;;;;;2076217;28;20033;-70
2023/06/25 00:52:28;;;;;;;5.60;5.10;;;19.80;99.90;;;;;;2073853;28;20471;-70
2023/06/25 00:53:36;;;;;;;6.78;5.40;;;19.80;99.90;;;;;;2074764;28;20034;-70
2023/06/25 00:54:38;;;;;;;5.82;5.13;;;19.80;99.90;;;;;;2073670;28;20033;-70
2023/06/25 00:55:39;;;;;;;5.93;5.32;;;19.70;99.90;;;;;;2074144;28;20017;-70
2023/06/25 00:56:39;;;;;;;5.60;5.10;;;19.70;99.90;;;;;;2073813;28;20100;-70
2023/06/25 00:57:41;;;;;;;5.30;4.80;;;19.70;99.90;;;;;;2075235;28;20104;-70
2023/06/25 00:58:41;;;;;;;6.40;5.30;;;19.70;99.90;;;;;;2074377;28;20658;-70
2023/06/25 00:59:44;;;;;;;7.63;5.32;;;19.70;99.90;;;;;;2074115;28;20397;-70
2023/06/25 01:00:46;;;;;;;5.30;4.78;;;19.70;99.90;;;;;;2074428;28;20128;-70
2023/06/25 01:01:55;;;;;;;5.30;4.80;;;19.70;99.90;;;;;;2075708;28;20071;-70
2023/06/25 01:03:12;;;;;;;6.00;5.40;;;19.70;99.90;;;;;;2075318;28;20025;-70
2023/06/25 01:04:19;;;;;;;5.60;4.80;;;19.70;99.90;;;;;;2076705;28;20034;-70
2023/06/25 01:05:29;;;;;;;5.60;4.88;;;19.60;99.90;;;;;;2076346;28;20195;-70
2023/06/25 01:06:37;;;;;;;5.45;4.95;;;19.60;99.90;;;;;;2075566;28;20640;-70
2023/06/25 01:07:42;;;;;;;5.65;5.15;;;19.60;99.90;;;;;;2076034;28;20033;-70
2023/06/25 01:08:50;;;;;;;6.15;5.55;;;19.60;99.90;;;;;;2075339;28;20079;-70
2023/06/25 01:09:51;;;;;;;5.88;5.32;;;19.60;99.90;;;;;;2073413;28;20028;-70
2023/06/25 01:10:52;;;;;;;6.57;5.40;;;19.60;99.90;;;;;;2073747;28;20045;-70
2023/06/25 01:12:03;;;;;;;5.40;4.90;;;19.60;99.90;;;;;;2076995;28;20576;-70
2023/06/25 01:13:05;;;;;;;6.25;5.65;;;19.60;99.90;;;;;;2073241;28;20497;-70
2023/06/25 01:14:05;;;;;;;6.60;5.40;;;19.50;99.90;;;;;;2075006;28;20029;-70
2023/06/25 01:15:09;;;;;;;5.80;5.18;;;19.50;99.90;;;;;;2076122;28;20029;-70
2023/06/25 01:16:09;;;;;;;4.97;4.50;;;19.50;99.90;;;;;;2076399;28;20029;-70
2023/06/25 01:17:10;;;;;;;8.35;5.07;;;19.50;99.90;;;;;;2075707;28;20032;-70
2023/06/25 01:18:13;;;;;;;5.40;4.88;;;19.50;99.90;;;;;;2074380;28;20028;-70
2023/06/25 01:19:15;;;;;;;6.10;4.97;;;19.50;99.90;;;;;;2077906;28;20033;-70
2023/06/25 01:20:16;;;;;;;5.13;4.63;;;19.50;99.90;;;;;;2074758;28;20026;-70
2023/06/25 01:21:23;;;;;;;7.10;5.30;;;19.50;99.90;;;;;;2076019;28;20022;-70
2023/06/25 01:22:33;;;;;;;5.75;5.15;;;19.50;99.90;;;;;;2074639;28;20033;-70
2023/06/25 01:23:37;;;;;;;5.75;5.30;;;19.50;99.90;;;;;;2074876;28;20021;-70
2023/06/25 01:24:37;;;;;;;5.20;4.57;;;19.40;99.90;;;;;;2074401;28;20950;-70
2023/06/25 01:25:38;;;;;;;5.30;4.60;;;19.40;99.90;;;;;;2075697;28;20037;-70
2023/06/25 01:26:39;;;;;;;6.78;5.05;;;19.40;99.90;;;;;;2075437;28;20429;-70
2023/06/25 01:27:39;;;;;;;4.75;4.35;;;19.40;99.90;;;;;;2076509;28;20022;-70
2023/06/25 01:28:40;;;;;;;6.40;4.80;;;19.40;99.90;;;;;;2077104;28;20092;-70
2023/06/25 01:29:40;;;;;;;6.38;5.18;;;19.40;99.90;;;;;;2074331;28;20029;-70
2023/06/25 01:30:42;;;;;;;5.05;4.57;;;19.40;99.90;;;;;;2073774;28;20113;-70
2023/06/25 01:31:42;;;;;;;5.50;4.97;;;19.40;99.90;;;;;;2075699;28;20500;-70
2023/06/25 01:32:44;;;;;;;5.82;5.22;;;19.40;99.90;;;;;;2075922;28;20099;-70
2023/06/25 01:33:44;;;;;;;7.30;5.05;;;19.40;99.90;;;;;;2077313;28;20057;-70
2023/06/25 01:34:45;;;;;;;6.40;5.00;;;19.40;99.90;;;;;;2075162;28;20056;-70
2023/06/25 01:35:46;;;;;;;6.18;4.35;;;19.30;99.90;;;;;;2074340;28;20101;-70
2023/06/25 01:36:50;;;;;;;5.28;4.78;;;19.30;99.90;;;;;;2075820;28;20063;-70
2023/06/25 01:37:51;;;;;;;6.63;5.40;;;19.30;99.90;;;;;;2074409;28;20025;-70
2023/06/25 01:38:52;;;;;;;5.80;5.28;;;19.30;99.90;;;;;;2076102;28;20860;-70
2023/06/25 01:39:55;;;;;;;5.65;5.13;;;19.30;99.90;;;;;;2075643;28;20679;-70
2023/06/25 01:40:56;;;;;;;5.53;4.97;;;19.30;99.90;;;;;;2075655;28;20355;-70
2023/06/25 01:41:56;;;;;;;7.40;4.80;;;19.30;99.90;;;;;;2076354;28;20029;-70
2023/06/25 01:42:57;;;;;;;7.05;5.20;;;19.30;99.90;;;;;;2077198;28;20026;-70
2023/06/25 01:43:57;;;;;;;5.53;5.03;;;19.30;99.90;;;;;;2078457;28;20116;-70
2023/06/25 01:44:58;;;;;;;7.22;5.20;;;19.30;99.90;;;;;;2073073;28;20382;-70
2023/06/25 01:45:58;;;;;;;6.20;4.68;;;19.30;99.90;;;;;;2076038;28;20025;-70
2023/06/25 01:46:59;;;;;;;5.55;4.68;;;19.20;99.90;;;;;;2078746;28;20079;-70
2023/06/25 01:48:00;;;;;;;7.93;5.30;;;19.20;99.90;;;;;;2078095;28;20053;-70
2023/06/25 01:49:00;;;;;;;5.40;4.90;;;19.20;99.90;;;;;;2076073;28;20065;-70
2023/06/25 01:50:01;;;;;;;5.07;4.68;;;19.20;99.90;;;;;;2073176;28;20642;-70
2023/06/25 01:51:01;;;;;;;6.13;4.75;;;19.20;99.90;;;;;;2076134;28;20504;-70
2023/06/25 01:52:02;;;;;;;6.40;4.93;;;19.20;99.90;;;;;;2076566;28;20040;-70
2023/06/25 01:53:03;;;;;;;5.63;5.00;;;19.20;99.90;;;;;;2076319;28;20351;-70
2023/06/25 01:54:04;;;;;;;7.70;5.57;;;19.20;99.90;;;;;;2076238;28;20091;-70
2023/06/25 01:55:05;;;;;;;6.07;4.85;;;19.20;99.90;;;;;;2074594;28;20485;-70
2023/06/25 01:56:05;;;;;;;5.57;4.97;;;19.20;99.90;;;;;;2075660;28;20029;-70
2023/06/25 01:57:06;;;;;;;5.75;4.93;;;19.20;99.90;;;;;;2074493;28;20033;-70
2023/06/25 01:58:07;;;;;;;6.30;5.15;;;19.20;99.90;;;;;;2076077;28;20071;-70
2023/06/25 01:59:07;;;;;;;6.65;5.35;;;19.20;99.90;;;;;;2074276;28;20030;-70
2023/06/25 02:00:11;;;;;;;5.85;5.25;;;19.20;99.90;;;;;;2073820;28;20037;-70
2023/06/25 02:01:12;;;;;;;5.60;5.10;;;19.20;99.90;;;;;;2074717;28;20029;-70
2023/06/25 02:02:12;;;;;;;5.88;5.07;;;19.20;99.90;;;;;;2074337;28;20026;-70
2023/06/25 02:03:13;;;;;;;7.47;5.18;;;19.10;99.90;;;;;;2074545;28;20445;-70
2023/06/25 02:04:14;;;;;;;6.22;5.50;;;19.10;99.90;;;;;;2073711;28;20130;-70
2023/06/25 02:05:15;;;;;;;5.28;4.78;;;19.10;99.90;;;;;;2075745;28;20665;-70
2023/06/25 02:06:15;;;;;;;4.78;4.25;;;19.10;99.90;;;;;;2075534;28;20068;-70
2023/06/25 02:07:16;;;;;;;4.95;4.43;;;19.10;99.90;;;;;;2076595;28;20025;-70
2023/06/25 02:08:16;;;;;;;5.70;5.13;;;19.10;99.90;;;;;;2076999;28;20041;-70
2023/06/25 02:09:17;;;;;;;5.43;4.95;;;19.10;99.90;;;;;;2075771;28;20029;-70
2023/06/25 02:10:17;;;;;;;5.82;5.30;;;19.10;99.90;;;;;;2073453;28;20427;-70
2023/06/25 02:11:18;;;;;;;5.40;4.90;;;19.10;99.90;;;;;;2073010;28;20022;-70
2023/06/25 02:12:18;;;;;;;6.43;5.32;;;19.10;99.90;;;;;;2074581;28;20041;-70
2023/06/25 02:13:19;;;;;;;7.30;5.30;;;19.00;99.90;;;;;;2074027;28;20080;-70
2023/06/25 02:14:21;;;;;;;9.27;4.90;;;19.10;99.90;;;;;;2075547;28;20444;-70
2023/06/25 02:15:21;;;;;;;6.28;4.97;;;19.00;99.90;;;;;;2074221;28;20037;-70
2023/06/25 02:16:22;;;;;;;6.43;5.53;;;19.00;99.90;;;;;;2074026;28;20478;-70
2023/06/25 02:17:22;;;;;;;6.25;5.15;;;19.00;99.90;;;;;;2073879;28;20486;-70
2023/06/25 02:18:23;;;;;;;7.55;5.60;;;19.00;99.90;;;;;;2073929;28;20026;-70
2023/06/25 02:19:23;;;;;;;6.75;5.95;;;19.00;99.90;;;;;;2073312;28;20052;-70
2023/06/25 02:20:24;;;;;;;5.18;4.68;;;19.00;99.90;;;;;;2074252;28;20014;-70
2023/06/25 02:21:24;;;;;;;6.50;5.90;;;19.00;99.90;;;;;;2075401;28;20022;-70
2023/06/25 02:22:25;;;;;;;7.65;5.47;;;19.00;99.90;;;;;;2075103;28;20081;-70
2023/06/25 02:23:25;;;;;;;5.75;5.13;;;19.00;99.90;;;;;;2073694;28;20026;-70
2023/06/25 02:24:26;;;;;;;5.90;5.30;;;19.00;99.90;;;;;;2074560;28;20104;-70
2023/06/25 02:25:27;;;;;;;7.55;5.47;;;19.00;99.90;;;;;;2075244;28;20025;-70
2023/06/25 02:26:29;;;;;;;5.45;4.95;;;19.00;99.90;;;;;;2074640;28;20024;-70
2023/06/25 02:27:29;;;;;;;6.95;6.25;;;18.90;99.90;;;;;;2072519;28;20033;-70
2023/06/25 02:28:30;;;;;;;5.57;5.07;;;18.90;99.90;;;;;;2073970;28;20135;-70
2023/06/25 02:29:30;;;;;;;6.03;5.43;;;18.90;99.90;;;;;;2077128;28;20032;-70
2023/06/25 02:30:31;;;;;;;6.15;5.45;;;18.90;99.90;;;;;;2075210;28;20520;-70
2023/06/25 02:31:31;;;;;;;6.20;5.60;;;18.90;99.90;;;;;;2075992;28;20059;-70
2023/06/25 02:32:32;;;;;;;7.80;5.85;;;18.90;99.90;;;;;;2076025;28;20105;-70
2023/06/25 02:33:33;;;;;;;5.68;5.15;;;18.90;99.90;;;;;;2077610;28;20416;-70
2023/06/25 02:34:33;;;;;;;5.55;5.05;;;18.90;99.90;;;;;;2072638;28;20132;-70
2023/06/25 02:35:34;;;;;;;6.07;5.47;;;18.90;99.90;;;;;;2074022;28;20040;-70
2023/06/25 02:36:34;;;;;;;6.03;5.07;;;18.90;99.90;;;;;;2074305;28;20029;-70
2023/06/25 02:37:35;;;;;;;5.95;5.05;;;18.90;99.90;;;;;;2078483;28;20459;-70
2023/06/25 02:38:35;;;;;;;6.05;5.40;;;18.90;99.90;;;;;;2080035;28;20021;-70
2023/06/25 02:39:36;;;;;;;7.57;5.82;;;18.90;99.90;;;;;;2073610;28;20497;-70
2023/06/25 02:40:36;;;;;;;6.20;5.30;;;18.80;99.90;;;;;;2072705;28;20030;-70
2023/06/25 02:41:37;;;;;;;5.22;4.80;;;18.80;99.90;;;;;;2072842;28;20026;-70
2023/06/25 02:42:37;;;;;;;7.25;5.55;;;18.80;99.90;;;;;;2074147;28;20021;-70
2023/06/25 02:43:38;;;;;;;6.00;5.40;;;18.80;99.90;;;;;;2076182;28;20025;-70
2023/06/25 02:44:38;;;;;;;6.13;5.25;;;18.80;99.90;;;;;;2074379;28;20033;-70
2023/06/25 02:45:39;;;;;;;6.13;5.60;;;18.80;99.90;;;;;;2075962;28;20037;-70
2023/06/25 02:46:39;;;;;;;5.88;4.57;;;18.80;99.90;;;;;;2074221;28;20025;-70
2023/06/25 02:47:40;;;;;;;5.90;5.30;;;18.80;99.90;;;;;;2073933;28;20030;-70
2023/06/25 02:48:42;;;;;;;6.30;5.20;;;18.80;99.90;;;;;;2073926;28;20504;-70
2023/06/25 02:49:43;;;;;;;6.93;5.13;;;18.80;99.90;;;;;;2072036;28;20029;-70
2023/06/25 02:50:44;;;;;;;5.97;5.38;;;18.80;99.90;;;;;;2072809;28;20025;-70
2023/06/25 02:51:44;;;;;;;6.35;5.75;;;18.80;99.90;;;;;;2072511;28;20041;-70
2023/06/25 02:52:45;;;;;;;5.95;5.35;;;18.80;99.90;;;;;;2075490;28;20033;-70
2023/06/25 02:53:45;;;;;;;5.78;4.90;;;18.70;99.90;;;;;;2075553;28;20036;-70
2023/06/25 02:54:46;;;;;;;6.45;4.88;;;18.70;99.90;;;;;;2076347;28;20026;-70
2023/06/25 02:55:46;;;;;;;5.88;5.38;;;18.70;99.90;;;;;;2074601;28;20022;-70
2023/06/25 02:56:47;;;;;;;6.30;5.70;;;18.70;99.90;;;;;;2074121;28;20057;-70
2023/06/25 02:57:47;;;;;;;5.95;5.38;;;18.70;99.90;;;;;;2075475;28;20025;-70
2023/06/25 02:58:48;;;;;;;5.07;4.60;;;18.70;99.90;;;;;;2073778;28;20026;-70
2023/06/25 02:59:49;;;;;;;5.72;5.22;;;18.70;99.90;;;;;;2073774;28;20033;-70
2023/06/25 03:00:49;;;;;;;6.70;6.03;;;18.70;99.90;;;;;;2073696;28;20466;-70
2023/06/25 03:01:50;;;;;;;5.22;4.72;;;18.70;99.90;;;;;;2074153;28;20049;-70
2023/06/25 03:02:50;;;;;;;6.20;5.60;;;18.60;99.90;;;;;;2074585;28;20489;-70
2023/06/25 03:03:51;;;;;;;6.68;5.45;;;18.70;99.90;;;;;;2074296;28;20348;-70
2023/06/25 03:04:52;;;;;;;6.75;5.68;;;18.70;99.90;;;;;;2073963;28;20109;-70
2023/06/25 03:05:53;;;;;;;6.72;5.88;;;18.70;99.90;;;;;;2074237;28;20022;-70
2023/06/25 03:06:53;;;;;;;8.85;5.57;;;18.70;99.90;;;;;;2075185;28;20030;-70
2023/06/25 03:07:59;;;;;;;9.70;6.03;;;18.70;99.90;;;;;;2076349;28;20021;-70
2023/06/25 03:09:00;;;;;;;6.32;5.32;;;18.70;99.90;;;;;;2077213;28;20021;-70
2023/06/25 03:10:00;;;;;;;6.15;5.60;;;18.60;99.90;;;;;;2074051;28;20030;-70
2023/06/25 03:11:01;;;;;;;5.35;4.85;;;18.60;99.90;;;;;;2074154;28;20486;-70
2023/06/25 03:12:02;;;;;;;5.75;5.10;;;18.60;99.90;;;;;;2074868;28;20025;-70
2023/06/25 03:13:02;;;;;;;6.90;5.50;;;18.60;99.90;;;;;;2073984;28;20063;-70
2023/06/25 03:14:03;;;;;;;6.25;5.45;;;18.60;99.90;;;;;;2074658;28;20068;-70
2023/06/25 03:15:03;;;;;;;6.93;5.40;;;18.60;99.90;;;;;;2073270;28;20505;-70
2023/06/25 03:16:04;;;;;;;5.40;4.90;;;18.60;99.90;;;;;;2074130;28;20468;-70
2023/06/25 03:17:05;;;;;;;6.80;6.00;;;18.60;99.90;;;;;;2074018;28;20102;-70
2023/06/25 03:18:06;;;;;;;5.78;5.07;;;18.60;99.90;;;;;;2075108;28;20053;-70
2023/06/25 03:19:06;;;;;;;6.18;5.57;;;18.60;99.90;;;;;;2073175;28;20032;-70
2023/06/25 03:20:07;;;;;;;5.93;5.38;;;18.60;99.90;;;;;;2074614;28;20897;-70
2023/06/25 03:21:08;;;;;;;5.80;5.20;;;18.60;99.90;;;;;;2073975;28;20642;-70
2023/06/25 03:22:08;;;;;;;8.75;5.55;;;18.60;99.90;;;;;;2075926;28;20029;-70
2023/06/25 03:23:10;;;;;;;6.32;5.72;;;18.50;99.90;;;;;;2073771;28;20092;-70
2023/06/25 03:24:10;;;;;;;7.60;5.97;;;18.50;99.90;;;;;;2070388;28;20399;-70
2023/06/25 03:25:11;;;;;;;6.28;5.68;;;18.50;99.90;;;;;;2075726;28;20109;-70
2023/06/25 03:26:12;;;;;;;7.35;5.93;;;18.50;99.90;;;;;;2075740;28;20025;-70
2023/06/25 03:27:12;;;;;;;6.00;5.43;;;18.50;99.90;;;;;;2076220;28;20460;-70
2023/06/25 03:28:13;;;;;;;5.72;5.22;;;18.50;99.90;;;;;;2075674;28;20498;-71
2023/06/25 03:29:13;;;;;;;6.45;5.80;;;18.50;99.90;;;;;;2075997;28;20080;-71
2023/06/25 03:30:14;;;;;;;7.63;5.68;;;18.50;99.90;;;;;;2073876;28;20067;-71
2023/06/25 03:31:14;;;;;;;5.97;5.47;;;18.50;99.90;;;;;;2075408;28;20037;-71
2023/06/25 03:32:15;;;;;;;6.10;5.60;;;18.50;99.90;;;;;;2078019;28;20033;-71
2023/06/25 03:33:15;;;;;;;6.85;5.53;;;18.50;99.90;;;;;;2078121;28;20707;-71
2023/06/25 03:34:16;;;;;;;6.22;5.63;;;18.50;99.90;;;;;;2076183;28;20060;-71
2023/06/25 03:35:17;;;;;;;6.28;5.68;;;18.50;99.90;;;;;;2078087;28;20025;-71
2023/06/25 03:36:18;;;;;;;7.43;5.93;;;18.50;99.90;;;;;;2075119;28;20022;-71
2023/06/25 03:37:18;;;;;;;9.48;5.60;;;18.50;99.90;;;;;;2076732;28;20026;-71
2023/06/25 03:38:19;;;;;;;7.90;4.93;;;18.50;99.90;;;;;;2076425;28;20029;-71
2023/06/25 03:39:19;;;;;;;6.47;5.35;;;18.50;99.90;;;;;;2076556;28;20032;-71
2023/06/25 03:40:20;;;;;;;6.57;5.60;;;18.50;99.90;;;;;;2076024;28;20034;-70
2023/06/25 03:41:20;;;;;;;5.82;5.25;;;18.50;99.90;;;;;;2076551;28;20156;-70
2023/06/25 03:42:21;;;;;;;6.45;5.57;;;18.50;99.90;;;;;;2075099;28;20025;-70
2023/06/25 03:43:21;;;;;;;5.88;5.25;;;18.50;99.90;;;;;;2077751;28;20025;-70
2023/06/25 03:44:22;;;;;;;5.22;4.82;;;18.50;99.90;;;;;;2084850;28;20047;-70
2023/06/25 03:45:22;;;;;;;6.72;5.72;;;18.50;99.90;;;;;;2083308;28;20521;-70
2023/06/25 03:46:23;;;;;;;5.63;5.13;;;18.40;99.90;;;;;;2075228;28;20042;-70
2023/06/25 03:47:23;;;;;;;6.25;5.65;;;18.50;99.90;;;;;;2076110;28;20989;-70
2023/06/25 03:48:24;;;;;;;6.00;5.43;;;18.40;99.90;;;;;;2075783;28;20065;-70
2023/06/25 03:49:24;;;;;;;7.20;5.70;;;18.40;99.90;;;;;;2074493;28;20079;-70
2023/06/25 03:50:25;;;;;;;6.60;5.90;;;18.50;99.90;;;;;;2073163;28;20080;-70
2023/06/25 03:51:25;;;;;;;8.05;5.90;;;18.40;99.90;;;;;;2074836;28;20148;-70
2023/06/25 03:52:26;;;;;;;6.43;5.35;;;18.50;99.90;;;;;;2074595;28;20073;-70
2023/06/25 03:53:26;;;;;;;6.72;5.38;;;18.40;99.90;;;;;;2074942;28;20033;-70
2023/06/25 03:54:27;;;;;;;5.93;5.43;;;18.50;99.90;;;;;;2075654;28;20109;-70
2023/06/25 03:55:27;;;;;;;8.20;6.13;;;18.50;99.90;;;;;;2074937;28;20033;-70
2023/06/25 03:56:28;;;;;;;9.13;5.57;;;18.50;99.90;;;;;;2078695;28;20581;-70
2023/06/25 03:57:29;;;;;;;7.78;6.15;;;18.50;99.90;;;;;;2079310;28;20040;-70
2023/06/25 03:58:29;;;;;;;8.80;5.50;;;18.50;99.90;;;;;;2074249;28;20717;-70
2023/06/25 03:59:31;;;;;;;5.97;5.13;;;18.50;99.90;;;;;;2079391;28;20025;-70
2023/06/25 04:00:31;;;;;;;5.80;5.25;;;18.60;99.90;;;;;;2075934;28;20037;-70
2023/06/25 04:01:32;;;;;;;6.60;5.88;;;18.60;99.90;;;;;;2075675;28;20584;-70
2023/06/25 04:02:32;;;;;;;6.82;5.80;;;18.60;99.90;;;;;;2076191;28;20029;-70
2023/06/25 04:03:33;;;;;;;6.25;5.35;;;18.70;99.90;;;;;;2075909;28;20598;-70
2023/06/25 04:04:33;;;;;;;6.50;5.53;;;18.70;99.90;;;;;;2073691;28;20030;-70
2023/06/25 04:05:34;;;;;;;5.75;5.15;;;18.80;99.90;;;;;;2073799;28;20299;-70
2023/06/25 04:06:35;;;;;;;7.32;5.85;;;18.80;99.90;;;;;;2075269;28;20025;-70
2023/06/25 04:07:35;;;;;;;6.72;5.68;;;18.90;99.90;;;;;;2076021;28;20026;-70
2023/06/25 04:08:40;;;;;;;8.93;5.40;;;19.00;99.90;;;;;;2076248;28;20025;-70
2023/06/25 04:09:40;;;;;;;5.25;4.75;;;19.10;99.90;;;;;;2074755;28;20450;-70
2023/06/25 04:10:41;;;;;;;6.28;5.55;;;19.30;99.90;;;;;;2073821;28;20672;-70
2023/06/25 04:11:41;;;;;;;5.28;4.78;;;19.50;99.90;;;;;;2075557;28;20112;-70
2023/06/25 04:12:42;;;;;;;7.47;5.88;;;19.70;99.90;;;;;;2074107;28;20026;-70
2023/06/25 04:13:42;;;;;;;6.75;5.68;;;19.90;99.90;;;;;;2076475;28;20038;-70
2023/06/25 04:14:43;;;;;;;6.28;5.63;;;20.20;99.90;;;;;;2075852;28;20026;-70
2023/06/25 04:15:43;;;;;;;6.20;5.47;;;20.40;99.90;;;;;;2074630;28;20018;-70
2023/06/25 04:16:44;;;;;;;6.07;5.28;;;20.70;99.90;;;;;;2076138;28;20025;-70
2023/06/25 04:17:46;;;;;;;6.90;5.70;;;20.90;99.90;;;;;;2074693;28;20033;-70
2023/06/25 04:18:47;;;;;;;6.95;5.80;;;21.10;99.90;;;;;;2075328;28;20026;-70
2023/06/25 04:19:47;;;;;;;5.80;5.07;;;21.40;99.90;;;;;;2074420;28;20128;-70
2023/06/25 04:20:48;;;;;;;6.68;5.18;;;21.60;99.90;;;;;;2077259;28;20373;-70
2023/06/25 04:21:49;;;;;;;7.72;5.13;;;21.70;99.90;;;;;;2075793;28;20033;-70
2023/06/25 04:22:50;;;;;;;5.90;5.30;;;22.00;99.90;;;;;;2075903;28;20049;-70
2023/06/25 04:23:51;;;;;;;5.18;4.72;;;22.10;99.90;;;;;;2074977;28;20097;-71
2023/06/25 04:24:51;;;;;;;5.43;4.93;;;22.20;99.90;;;;;;2077297;28;20044;-71
2023/06/25 04:25:52;;;;;;;8.15;5.15;;;22.40;99.90;;;;;;2075946;28;20045;-71
2023/06/25 04:26:52;;;;;;;5.88;5.38;;;22.60;99.90;;;;;;2076097;28;20025;-71
2023/06/25 04:27:55;;;;;;;7.57;5.50;;;22.60;99.90;;;;;;2077325;28;20029;-71
2023/06/25 04:28:55;;;;;;;5.95;4.72;;;22.60;99.90;;;;;;2075317;28;20034;-71
2023/06/25 04:29:56;;;;;;;6.03;5.43;;;22.60;99.90;;;;;;2075204;28;20034;-71
2023/06/25 04:30:56;;;;;;;5.80;5.18;;;22.60;99.90;;;;;;2074155;28;20029;-71
2023/06/25 04:31:57;;;;;;;5.93;5.35;;;22.50;99.90;;;;;;2076411;28;20030;-71
2023/06/25 04:32:57;;;;;;;5.80;4.97;;;22.40;99.90;;;;;;2076392;28;20025;-71
2023/06/25 04:33:58;;;;;;;6.38;5.65;;;22.40;99.90;;;;;;2076133;28;20028;-71
2023/06/25 04:34:59;;;;;;;6.20;5.18;;;22.40;99.90;;;;;;2075087;28;20026;-71
2023/06/25 04:35:59;;;;;;;5.88;5.25;;;22.30;99.90;;;;;;2075112;28;20033;-71
2023/06/25 04:37:00;;;;;;;5.80;5.20;;;22.30;99.90;;;;;;2076577;28;20017;-71
2023/06/25 04:38:00;;;;;;;7.13;5.70;;;22.30;99.90;;;;;;2073353;28;20026;-71
2023/06/25 04:39:01;;;;;;;6.57;5.30;;;22.30;99.90;;;;;;2075366;28;20111;-71
2023/06/25 04:40:05;;;;;;;6.47;5.72;;;22.30;99.90;;;;;;2074415;28;20029;-71
2023/06/25 04:41:06;;;;;;;7.30;5.80;;;22.40;99.90;;;;;;2074069;28;20653;-71
2023/06/25 04:42:07;;;;;;;5.50;4.95;;;22.40;99.90;;;;;;2074418;28;20037;-71
2023/06/25 04:43:07;;;;;;;5.80;5.18;;;22.40;99.90;;;;;;2074566;28;20029;-71
2023/06/25 04:44:08;;;;;;;5.90;5.40;;;22.50;99.90;;;;;;2075446;28;20052;-71
2023/06/25 04:45:08;;;;;;;6.55;6.05;;;22.50;99.90;;;;;;2073600;28;20040;-71
2023/06/25 04:46:09;;;;;;;5.32;4.80;;;22.60;99.90;;;;;;2075816;28;20030;-71
2023/06/25 04:47:10;;;;;;;5.93;5.32;;;22.60;99.90;;;;;;2074240;28;20661;-71
2023/06/25 04:48:10;;;;;;;5.90;5.30;;;22.70;99.90;;;;;;2073862;28;20025;-71
2023/06/25 04:49:11;;;;;;;5.68;5.07;;;22.70;99.90;;;;;;2076058;28;20091;-71
2023/06/25 04:50:11;;;;;;;6.65;5.78;;;22.80;99.90;;;;;;2074591;28;20036;-71
2023/06/25 04:51:13;;;;;;;6.10;5.50;;;22.80;99.90;;;;;;2075322;28;20034;-71
2023/06/25 04:52:18;;;;;;;6.35;5.25;;;22.90;99.90;;;;;;2073366;28;20030;-71
2023/06/25 04:53:19;;;;;;;6.07;5.57;;;22.90;99.90;;;;;;2076816;28;20032;-71
2023/06/25 04:54:19;;;;;;;7.60;5.60;;;23.00;99.90;;;;;;2074088;28;20029;-71
2023/06/25 04:55:20;;;;;;;6.97;5.40;;;23.00;99.90;;;;;;2074594;28;20034;-71
2023/06/25 04:56:20;;;;;;;5.70;5.10;;;23.10;99.90;;;;;;2075472;28;20442;-71
2023/06/25 04:57:21;;;;;;;6.00;5.15;;;23.10;99.90;;;;;;2075757;28;20478;-71
2023/06/25 04:58:21;;;;;;;6.43;5.82;;;23.20;99.90;;;;;;2073194;28;20865;-71
2023/06/25 04:59:22;;;;;;;4.82;4.43;;;23.20;99.90;;;;;;2075662;28;20022;-71
2023/06/25 05:00:22;;;;;;;6.15;5.18;;;23.30;99.90;;;;;;2073412;28;20080;-71
2023/06/25 05:01:23;;;;;;;6.30;5.70;;;23.40;99.90;;;;;;2076223;28;20449;-71
2023/06/25 05:02:24;;;;;;;6.22;5.63;;;23.40;99.90;;;;;;2076910;28;20448;-71
2023/06/25 05:03:24;;;;;;;6.43;4.97;;;23.50;99.90;;;;;;2076237;28;20154;-71
2023/06/25 05:04:25;;;;;;;6.43;5.65;;;23.50;99.90;;;;;;2074083;28;20025;-71
2023/06/25 05:05:25;;;;;;;7.03;5.47;;;23.60;99.90;;;;;;2076282;28;20017;-71
2023/06/25 05:06:26;;;;;;;5.88;5.38;;;23.60;99.90;;;;;;2074875;28;20045;-71
2023/06/25 05:07:26;;;;;;;7.13;5.18;;;23.70;99.90;;;;;;2074930;28;20040;-71
2023/06/25 05:08:27;;;;;;;6.10;5.43;;;23.80;99.90;;;;;;2074568;28;20056;-71
2023/06/25 05:09:27;;;;;;;6.45;5.25;;;23.80;99.90;;;;;;2075789;28;20481;-71
2023/06/25 05:10:28;;;;;;;6.18;5.57;;;23.90;99.90;;;;;;2073744;28;20026;-71
2023/06/25 05:11:28;;;;;;;5.40;4.90;;;23.90;99.90;;;;;;2074811;28;20041;-71
2023/06/25 05:12:29;;;;;;;6.22;5.22;;;24.00;99.90;;;;;;2075027;28;20549;-71
2023/06/25 05:13:30;;;;;;;6.35;5.53;;;24.10;99.90;;;;;;2077465;28;20040;-71
2023/06/25 05:14:31;;;;;;;6.28;5.35;;;24.20;99.90;;;;;;2074793;28;20682;-71
2023/06/25 05:15:32;;;;;;;10.00;5.60;;;24.20;99.90;;;;;;2073594;28;20413;-71
2023/06/25 05:16:32;;;;;;;5.60;5.10;;;24.30;99.90;;;;;;2075444;28;20025;-71
2023/06/25 05:17:33;;;;;;;5.90;5.40;;;24.40;99.90;;;;;;2077357;28;20097;-71
2023/06/25 05:18:33;;;;;;;6.63;6.03;;;24.40;99.90;;;;;;2075149;28;20389;-71